Time;durP1;ratioP1;P1;durP2;ratioP2;P2;SDS_P1;SDS_P2;PMS_P1;PMS_P2;Temp;Humidity;BMP_temperature;BMP_pressure;BME280_temperature;BME280_humidity;BME280_pressure;Samples;Min_cycle;Max_cycle;Signal;HPM_P1;HPM_P2
2022/03/06 00:02:11;;;;;;;4.22;3.25;;;23.50;32.70;;;;;;5005072;28;20052;-46
2022/03/06 00:04:37;;;;;;;5.38;3.90;;;23.50;32.60;;;;;;5004868;28;20083;-46
2022/03/06 00:07:03;;;;;;;5.95;4.15;;;23.50;32.70;;;;;;5005027;28;20029;-46
2022/03/06 00:09:29;;;;;;;5.13;3.70;;;23.50;32.60;;;;;;5005830;28;20056;-47
2022/03/06 00:11:54;;;;;;;5.03;3.58;;;23.50;32.60;;;;;;5003976;28;20505;-47
2022/03/06 00:14:20;;;;;;;5.20;3.70;;;23.50;32.60;;;;;;5005561;28;20291;-46
2022/03/06 00:16:46;;;;;;;5.60;3.95;;;23.50;32.60;;;;;;5005441;28;20041;-45
2022/03/06 00:19:12;;;;;;;5.63;3.95;;;23.40;32.50;;;;;;5005352;28;20030;-46
2022/03/06 00:21:41;;;;;;;4.70;3.20;;;23.40;32.50;;;;;;5005580;28;20056;-46
2022/03/06 00:24:07;;;;;;;5.35;3.83;;;23.40;32.50;;;;;;5003930;28;20029;-46
2022/03/06 00:26:33;;;;;;;5.88;3.58;;;23.40;32.50;;;;;;5004108;28;20458;-46
2022/03/06 00:28:59;;;;;;;5.07;3.60;;;23.40;32.50;;;;;;5004409;28;20029;-46
2022/03/06 00:31:25;;;;;;;4.82;3.60;;;23.40;32.50;;;;;;5004830;28;20026;-47
2022/03/06 00:33:52;;;;;;;4.80;3.63;;;23.30;32.50;;;;;;5003781;28;20077;-46
2022/03/06 00:36:19;;;;;;;4.60;3.40;;;23.30;32.50;;;;;;5004617;28;20030;-46
2022/03/06 00:38:45;;;;;;;5.13;3.67;;;23.30;32.40;;;;;;5004759;28;20424;-46
2022/03/06 00:41:12;;;;;;;5.68;3.65;;;23.30;32.50;;;;;;5005240;28;20033;-46
2022/03/06 00:43:38;;;;;;;4.78;3.67;;;23.30;32.40;;;;;;5004771;28;20053;-46
2022/03/06 00:46:04;;;;;;;5.40;3.92;;;23.30;32.40;;;;;;5004784;28;20430;-48
2022/03/06 00:48:29;;;;;;;5.22;3.50;;;23.30;32.40;;;;;;4985345;28;20038;-46
2022/03/06 00:50:55;;;;;;;4.80;3.50;;;23.20;32.30;;;;;;4988420;28;20104;-45
2022/03/06 00:53:21;;;;;;;4.97;3.40;;;23.30;32.40;;;;;;5003892;28;20026;-45
2022/03/06 00:55:46;;;;;;;4.82;3.78;;;23.30;32.30;;;;;;5003958;28;20041;-46
2022/03/06 00:58:12;;;;;;;5.53;4.15;;;23.20;32.20;;;;;;5004369;28;20026;-46
2022/03/06 01:00:40;;;;;;;5.20;3.78;;;23.20;32.30;;;;;;5019786;28;20026;-46
2022/03/06 01:03:11;;;;;;;5.55;3.95;;;23.20;32.20;;;;;;5003058;28;20140;-47
2022/03/06 01:05:36;;;;;;;4.82;3.60;;;23.20;32.30;;;;;;5004213;28;20342;-46
2022/03/06 01:08:04;;;;;;;5.35;3.63;;;23.20;32.20;;;;;;5004069;28;20422;-46
2022/03/06 01:10:30;;;;;;;5.80;3.80;;;23.20;32.20;;;;;;5005461;28;20577;-46
2022/03/06 01:12:56;;;;;;;5.50;3.97;;;23.10;32.20;;;;;;5007865;28;20493;-46
2022/03/06 01:15:22;;;;;;;4.93;3.53;;;23.10;32.20;;;;;;5006585;28;20026;-46
2022/03/06 01:17:48;;;;;;;5.13;3.75;;;23.20;32.20;;;;;;5007655;28;20041;-47
2022/03/06 01:20:14;;;;;;;6.00;4.25;;;23.10;32.20;;;;;;5006985;28;20100;-46
2022/03/06 01:22:40;;;;;;;4.97;3.38;;;23.10;32.20;;;;;;5008698;28;20516;-45
2022/03/06 01:25:06;;;;;;;5.18;3.63;;;23.10;32.20;;;;;;5007853;28;20040;-45
2022/03/06 01:27:32;;;;;;;5.93;4.43;;;23.10;32.30;;;;;;5008362;28;20026;-46
2022/03/06 01:29:58;;;;;;;4.80;3.55;;;23.10;32.20;;;;;;5008134;28;20030;-46
2022/03/06 01:32:23;;;;;;;5.53;3.97;;;23.10;32.20;;;;;;5007932;28;20022;-45
2022/03/06 01:34:49;;;;;;;6.40;4.40;;;23.10;32.20;;;;;;5007672;28;20146;-45
2022/03/06 01:37:15;;;;;;;5.05;3.75;;;23.10;32.20;;;;;;5008067;28;20060;-46
2022/03/06 01:39:41;;;;;;;4.93;3.70;;;23.00;32.20;;;;;;5007936;28;20109;-46
2022/03/06 01:42:07;;;;;;;5.50;4.00;;;23.00;32.20;;;;;;5008134;28;20030;-46
2022/03/06 01:44:33;;;;;;;5.88;3.80;;;23.00;32.20;;;;;;5007473;28;20025;-46
2022/03/06 01:46:59;;;;;;;5.75;3.83;;;23.00;32.10;;;;;;5006925;28;20040;-46
2022/03/06 01:49:25;;;;;;;5.55;4.07;;;23.00;32.20;;;;;;5007574;28;20033;-46
2022/03/06 01:51:50;;;;;;;5.35;4.00;;;23.00;32.20;;;;;;5007255;28;20026;-46
2022/03/06 01:54:16;;;;;;;5.65;3.90;;;23.00;32.20;;;;;;5007695;28;20034;-46
2022/03/06 01:56:42;;;;;;;6.13;4.15;;;23.00;32.20;;;;;;5007582;28;20441;-45
2022/03/06 01:59:09;;;;;;;5.05;3.85;;;23.00;32.20;;;;;;5007858;28;20034;-45
2022/03/06 02:01:35;;;;;;;4.80;3.67;;;23.00;32.20;;;;;;5007273;28;20405;-46
2022/03/06 02:04:01;;;;;;;5.45;4.03;;;22.90;32.20;;;;;;5007530;28;20030;-46
2022/03/06 02:06:27;;;;;;;5.60;4.00;;;22.90;32.20;;;;;;5007433;28;20101;-45
2022/03/06 02:08:53;;;;;;;5.07;3.70;;;22.90;32.10;;;;;;5007910;28;20576;-46
2022/03/06 02:11:21;;;;;;;6.03;4.07;;;22.90;32.10;;;;;;5007546;28;20022;-45
2022/03/06 02:13:48;;;;;;;5.55;4.43;;;22.90;32.10;;;;;;5007498;28;20021;-46
2022/03/06 02:16:13;;;;;;;5.22;3.72;;;22.90;32.80;;;;;;5007063;28;20118;-46
2022/03/06 02:18:39;;;;;;;5.18;4.20;;;22.90;32.10;;;;;;5007200;28;20101;-46
2022/03/06 02:21:10;;;;;;;5.65;3.78;;;22.90;32.20;;;;;;5007649;28;20034;-46
2022/03/06 02:23:38;;;;;;;5.53;4.10;;;22.80;32.00;;;;;;5006265;28;20087;-45
2022/03/06 02:26:05;;;;;;;5.40;4.10;;;22.80;32.00;;;;;;5005786;28;20033;-46
2022/03/06 02:28:30;;;;;;;5.90;4.38;;;22.90;32.10;;;;;;5007040;28;20473;-47
2022/03/06 02:30:56;;;;;;;5.65;4.00;;;22.80;32.00;;;;;;5007016;28;20105;-45
2022/03/06 02:33:23;;;;;;;5.90;4.20;;;22.80;32.00;;;;;;5006942;28;20129;-46
2022/03/06 02:35:49;;;;;;;5.13;3.90;;;22.80;32.00;;;;;;5007662;28;20060;-46
2022/03/06 02:38:15;;;;;;;5.63;4.13;;;22.80;32.00;;;;;;5007405;28;20034;-46
2022/03/06 02:40:44;;;;;;;5.07;3.88;;;22.80;32.00;;;;;;5006953;28;20084;-48
2022/03/06 02:43:14;;;;;;;5.53;4.18;;;22.80;32.00;;;;;;5006602;28;20350;-47
2022/03/06 02:45:42;;;;;;;5.70;4.05;;;22.80;32.00;;;;;;5006878;28;20062;-46
2022/03/06 02:48:08;;;;;;;5.55;3.88;;;22.80;32.00;;;;;;5006654;28;20084;-46
2022/03/06 02:50:37;;;;;;;5.20;3.60;;;22.80;32.00;;;;;;5006496;28;20397;-46
2022/03/06 02:53:05;;;;;;;5.75;4.07;;;22.80;32.00;;;;;;5006427;28;20026;-47
2022/03/06 02:55:31;;;;;;;5.50;3.95;;;22.80;32.00;;;;;;5006058;28;20097;-46
2022/03/06 02:57:57;;;;;;;5.50;3.90;;;22.70;32.00;;;;;;5020966;28;20125;-46
2022/03/06 03:00:24;;;;;;;5.53;4.20;;;22.70;32.00;;;;;;5006443;28;20397;-46
2022/03/06 03:02:51;;;;;;;5.68;4.40;;;22.70;32.00;;;;;;5006432;28;20038;-46
2022/03/06 03:05:19;;;;;;;4.82;3.72;;;22.70;32.00;;;;;;5006056;28;20030;-46
2022/03/06 03:07:49;;;;;;;5.72;4.05;;;22.70;32.00;;;;;;5006046;28;20049;-45
2022/03/06 03:10:18;;;;;;;5.22;4.18;;;22.70;32.00;;;;;;5006179;28;20083;-46
2022/03/06 03:12:44;;;;;;;5.43;3.92;;;22.70;32.00;;;;;;5006284;28;20021;-46
2022/03/06 03:15:11;;;;;;;5.32;3.75;;;22.70;31.90;;;;;;5005808;28;20486;-46
2022/03/06 03:17:37;;;;;;;5.20;3.95;;;22.70;32.00;;;;;;5006148;28;20125;-46
2022/03/06 03:20:04;;;;;;;5.35;3.95;;;22.70;31.90;;;;;;5006275;28;20512;-46
2022/03/06 03:22:30;;;;;;;5.47;3.97;;;22.70;32.00;;;;;;5005982;28;20727;-45
2022/03/06 03:24:56;;;;;;;4.60;3.40;;;22.70;32.00;;;;;;5004736;28;20034;-45
2022/03/06 03:27:21;;;;;;;4.70;3.60;;;22.60;31.90;;;;;;5005982;28;20112;-46
2022/03/06 03:29:47;;;;;;;5.45;4.13;;;22.60;31.90;;;;;;5005902;28;20030;-46
2022/03/06 03:32:13;;;;;;;4.93;3.65;;;22.60;31.90;;;;;;5005208;28;20033;-46
2022/03/06 03:34:39;;;;;;;4.80;3.53;;;22.60;31.90;;;;;;5005583;28;20034;-46
2022/03/06 03:37:05;;;;;;;4.78;3.28;;;22.60;31.90;;;;;;5005808;28;20030;-45
2022/03/06 03:39:31;;;;;;;5.05;3.78;;;22.60;32.00;;;;;;5005655;28;20022;-46
2022/03/06 03:41:56;;;;;;;5.22;4.07;;;22.60;31.90;;;;;;5005428;28;20189;-45
2022/03/06 03:44:22;;;;;;;5.60;4.00;;;22.60;31.90;;;;;;5005401;28;20095;-46
2022/03/06 03:46:48;;;;;;;5.75;4.20;;;22.60;31.90;;;;;;5006012;28;20026;-46
2022/03/06 03:49:14;;;;;;;5.22;3.50;;;22.60;31.90;;;;;;5004441;28;20108;-46
2022/03/06 03:51:41;;;;;;;5.65;3.92;;;22.60;31.90;;;;;;5005470;28;20097;-46
2022/03/06 03:54:07;;;;;;;5.28;3.72;;;22.60;31.90;;;;;;5005287;28;20502;-45
2022/03/06 03:56:33;;;;;;;4.95;3.67;;;22.50;31.90;;;;;;5005003;28;20046;-46
2022/03/06 03:58:58;;;;;;;5.40;3.90;;;22.50;31.90;;;;;;5005774;28;20437;-46
2022/03/06 04:01:24;;;;;;;5.32;4.05;;;22.60;31.90;;;;;;5005281;28;20534;-46
2022/03/06 04:03:50;;;;;;;5.20;3.60;;;22.50;31.90;;;;;;5005213;28;20382;-45
2022/03/06 04:06:16;;;;;;;5.68;4.22;;;22.60;31.90;;;;;;5004117;28;20045;-45
2022/03/06 04:08:42;;;;;;;6.18;3.53;;;22.50;31.90;;;;;;5004712;28;20030;-46
2022/03/06 04:11:07;;;;;;;5.18;3.78;;;22.50;31.90;;;;;;5005135;28;20080;-46
2022/03/06 04:13:33;;;;;;;4.63;3.25;;;22.50;31.90;;;;;;5005316;28;20026;-45
2022/03/06 04:15:59;;;;;;;5.15;3.72;;;22.50;31.90;;;;;;5004740;28;20033;-46
2022/03/06 04:18:25;;;;;;;4.60;3.40;;;22.50;31.90;;;;;;5004777;28;20313;-46
2022/03/06 04:20:51;;;;;;;5.03;3.80;;;22.50;31.90;;;;;;5005373;28;20551;-45
2022/03/06 04:23:17;;;;;;;5.15;3.85;;;22.50;32.50;;;;;;5004229;28;20038;-46
2022/03/06 04:25:43;;;;;;;5.13;4.15;;;22.50;31.90;;;;;;5004957;28;20045;-46
2022/03/06 04:28:09;;;;;;;5.00;3.65;;;22.40;31.80;;;;;;5005020;28;20076;-47
2022/03/06 04:30:35;;;;;;;5.05;3.67;;;22.40;31.70;;;;;;5005257;28;20438;-46
2022/03/06 04:33:01;;;;;;;5.47;3.83;;;22.40;31.70;;;;;;5004654;28;20101;-46
2022/03/06 04:35:27;;;;;;;5.30;3.85;;;22.40;31.70;;;;;;5004902;28;20117;-46
2022/03/06 04:37:53;;;;;;;5.10;3.78;;;22.40;31.70;;;;;;5005008;28;20041;-46
2022/03/06 04:40:19;;;;;;;5.57;3.92;;;22.40;31.70;;;;;;5005062;28;20034;-46
2022/03/06 04:42:45;;;;;;;5.05;3.83;;;22.40;31.70;;;;;;5005321;28;20501;-46
2022/03/06 04:45:10;;;;;;;5.20;3.78;;;22.40;31.70;;;;;;5004992;28;20068;-46
2022/03/06 04:47:36;;;;;;;5.25;3.80;;;22.40;31.70;;;;;;5009162;28;20362;-46
2022/03/06 04:50:03;;;;;;;5.55;3.80;;;22.40;31.60;;;;;;5024195;28;20493;-45
2022/03/06 04:52:28;;;;;;;5.15;3.40;;;22.40;31.60;;;;;;5009101;28;20087;-45
2022/03/06 04:54:54;;;;;;;5.97;4.03;;;22.40;31.70;;;;;;5008755;28;20449;-46
2022/03/06 04:57:20;;;;;;;5.07;3.78;;;22.40;31.70;;;;;;5007729;28;20042;-46
2022/03/06 04:59:46;;;;;;;4.65;3.33;;;22.40;31.60;;;;;;5007709;28;20085;-46
2022/03/06 05:02:11;;;;;;;5.20;3.58;;;22.40;31.60;;;;;;5008585;28;20647;-46
2022/03/06 05:04:37;;;;;;;5.80;4.13;;;22.40;31.60;;;;;;5008327;28;20732;-47
2022/03/06 05:07:03;;;;;;;5.28;3.78;;;22.40;31.60;;;;;;5003403;28;20057;-53
2022/03/06 05:09:29;;;;;;;5.28;3.90;;;22.40;31.60;;;;;;4989324;28;20026;-46
2022/03/06 05:11:54;;;;;;;4.97;3.72;;;22.40;31.60;;;;;;4988774;28;20026;-46
2022/03/06 05:14:20;;;;;;;5.43;3.88;;;22.40;31.60;;;;;;4988818;28;20028;-45
2022/03/06 05:16:46;;;;;;;5.18;3.83;;;22.40;31.60;;;;;;4989004;28;20492;-45
2022/03/06 05:19:11;;;;;;;4.32;3.08;;;22.40;31.60;;;;;;5008440;28;20048;-46
2022/03/06 05:21:37;;;;;;;5.85;3.47;;;22.40;31.60;;;;;;5007534;28;20049;-46
2022/03/06 05:24:04;;;;;;;5.55;4.03;;;22.40;31.60;;;;;;5007453;28;20821;-46
2022/03/06 05:26:30;;;;;;;5.07;4.00;;;22.40;31.60;;;;;;5007953;28;20105;-46
2022/03/06 05:28:56;;;;;;;5.15;4.32;;;22.40;31.50;;;;;;5008036;28;20582;-46
2022/03/06 05:31:22;;;;;;;5.60;4.03;;;22.30;31.50;;;;;;5006745;28;20054;-45
2022/03/06 05:33:47;;;;;;;6.10;4.28;;;22.30;31.50;;;;;;5007566;28;20038;-45
2022/03/06 05:36:13;;;;;;;5.57;4.10;;;22.30;31.50;;;;;;5008135;28;20033;-46
2022/03/06 05:38:39;;;;;;;5.00;3.78;;;22.30;31.40;;;;;;5008199;28;20100;-46
2022/03/06 05:41:04;;;;;;;5.18;3.85;;;22.30;31.40;;;;;;5007823;28;20029;-47
2022/03/06 05:43:30;;;;;;;5.15;3.78;;;22.30;31.40;;;;;;5007367;28;20096;-47
2022/03/06 05:45:56;;;;;;;5.40;3.80;;;22.30;31.40;;;;;;5008062;28;20029;-46
2022/03/06 05:48:22;;;;;;;5.57;3.97;;;22.30;31.40;;;;;;5021545;28;20036;-46
2022/03/06 05:50:48;;;;;;;4.65;3.50;;;22.30;31.40;;;;;;5007647;28;20033;-45
2022/03/06 05:53:14;;;;;;;5.40;3.80;;;22.30;31.30;;;;;;5007977;28;20026;-46
2022/03/06 05:55:39;;;;;;;6.28;4.15;;;22.30;31.30;;;;;;5007040;28;20030;-46
2022/03/06 05:58:05;;;;;;;5.80;4.10;;;22.30;31.30;;;;;;5006205;28;20129;-45
2022/03/06 06:00:31;;;;;;;4.80;3.80;;;22.30;31.30;;;;;;5007546;28;20032;-46
2022/03/06 06:02:57;;;;;;;6.22;4.05;;;22.30;31.30;;;;;;5007270;28;20587;-47
2022/03/06 06:05:23;;;;;;;5.68;4.30;;;22.30;31.30;;;;;;5006777;28;20577;-46
2022/03/06 06:07:49;;;;;;;5.85;4.35;;;22.30;31.30;;;;;;5007032;28;20030;-46
2022/03/06 06:10:15;;;;;;;4.85;3.60;;;22.30;31.30;;;;;;5007013;28;20113;-46
2022/03/06 06:12:41;;;;;;;5.63;4.07;;;22.20;31.20;;;;;;5007475;28;20022;-47
2022/03/06 06:15:08;;;;;;;5.63;3.80;;;22.20;31.20;;;;;;5006857;28;20037;-46
2022/03/06 06:17:35;;;;;;;5.55;4.00;;;22.20;31.30;;;;;;5006382;28;20109;-46
2022/03/06 06:20:01;;;;;;;5.60;3.90;;;22.20;31.30;;;;;;5006996;28;20381;-45
2022/03/06 06:22:28;;;;;;;5.32;4.38;;;22.20;31.30;;;;;;5006320;28;20030;-46
2022/03/06 06:24:55;;;;;;;6.05;4.50;;;22.20;31.30;;;;;;5005892;28;20037;-46
2022/03/06 06:27:21;;;;;;;5.43;4.13;;;22.20;31.30;;;;;;5006062;28;20132;-45
2022/03/06 06:29:46;;;;;;;5.82;4.15;;;22.30;31.50;;;;;;5007014;28;20033;-45
2022/03/06 06:32:13;;;;;;;5.78;4.20;;;22.30;31.60;;;;;;5006403;28;20116;-46
2022/03/06 06:34:39;;;;;;;5.25;4.18;;;22.30;31.60;;;;;;5006958;28;20029;-46
2022/03/06 06:37:04;;;;;;;4.75;3.40;;;22.30;31.60;;;;;;5005828;28;20030;-46
2022/03/06 06:39:30;;;;;;;5.65;4.07;;;22.40;31.60;;;;;;5005364;28;20105;-46
2022/03/06 06:41:56;;;;;;;6.30;4.32;;;22.40;31.60;;;;;;5005282;28;20033;-45
2022/03/06 06:44:22;;;;;;;6.57;4.05;;;22.50;31.60;;;;;;5005280;28;20030;-44
2022/03/06 06:46:48;;;;;;;5.78;4.40;;;22.60;31.60;;;;;;5005447;28;20030;-46
2022/03/06 06:49:13;;;;;;;5.93;4.30;;;22.60;31.50;;;;;;5005129;28;20029;-46
2022/03/06 06:51:39;;;;;;;5.57;4.07;;;22.70;31.70;;;;;;5005184;28;20307;-46
2022/03/06 06:54:05;;;;;;;5.75;4.05;;;22.80;31.60;;;;;;5005169;28;20093;-45
2022/03/06 06:56:32;;;;;;;5.80;4.10;;;22.80;31.70;;;;;;5004931;28;20030;-46
2022/03/06 06:58:57;;;;;;;6.20;4.38;;;22.90;31.50;;;;;;5005285;28;20029;-46
2022/03/06 07:01:23;;;;;;;7.95;4.50;;;23.00;31.60;;;;;;5002204;28;20030;-46
2022/03/06 07:03:49;;;;;;;7.05;4.90;;;23.10;31.80;;;;;;5004450;28;20038;-46
2022/03/06 07:06:15;;;;;;;7.38;4.85;;;23.10;32.00;;;;;;5006380;28;20040;-47
2022/03/06 07:08:41;;;;;;;7.03;4.40;;;23.30;33.30;;;;;;5004170;28;20160;-46
2022/03/06 07:11:07;;;;;;;7.30;4.15;;;23.30;32.90;;;;;;5004731;28;20029;-46
2022/03/06 07:13:33;;;;;;;9.27;5.18;;;23.40;32.70;;;;;;5005063;28;20065;-46
2022/03/06 07:15:58;;;;;;;5.90;4.18;;;23.50;32.60;;;;;;5004501;28;20053;-46
2022/03/06 07:18:24;;;;;;;5.43;4.57;;;23.50;32.30;;;;;;5004979;28;20050;-46
2022/03/06 07:20:50;;;;;;;6.10;4.47;;;23.60;32.10;;;;;;5003548;28;20032;-47
2022/03/06 07:23:16;;;;;;;7.72;4.72;;;23.70;31.90;;;;;;5004152;28;20030;-47
2022/03/06 07:25:42;;;;;;;6.40;4.43;;;23.80;31.70;;;;;;5005392;28;20032;-46
2022/03/06 07:28:08;;;;;;;6.38;4.47;;;23.80;31.50;;;;;;5004631;28;20420;-45
2022/03/06 07:30:33;;;;;;;7.03;4.47;;;23.80;31.40;;;;;;5005241;28;20165;-46
2022/03/06 07:33:02;;;;;;;7.45;4.70;;;23.90;31.40;;;;;;5004915;28;20049;-46
2022/03/06 07:35:29;;;;;;;7.15;4.22;;;24.00;31.30;;;;;;5004564;28;20034;-47
2022/03/06 07:37:55;;;;;;;6.05;4.22;;;24.00;31.20;;;;;;5005464;28;20793;-46
2022/03/06 07:40:22;;;;;;;6.80;4.97;;;24.20;31.10;;;;;;5005448;28;20037;-46
2022/03/06 07:42:48;;;;;;;6.75;4.45;;;24.20;31.00;;;;;;5004822;28;20084;-47
2022/03/06 07:45:15;;;;;;;6.47;4.50;;;24.30;31.10;;;;;;5004086;28;20514;-46
2022/03/06 07:47:41;;;;;;;5.80;4.32;;;24.30;31.00;;;;;;5004310;28;20025;-46
2022/03/06 07:50:11;;;;;;;7.05;3.88;;;24.30;31.20;;;;;;5017166;28;20024;-47
2022/03/06 07:52:38;;;;;;;6.05;4.45;;;24.40;31.00;;;;;;5021955;28;20018;-47
2022/03/06 07:55:05;;;;;;;5.50;4.13;;;24.50;30.90;;;;;;5009993;28;20025;-46
2022/03/06 07:57:31;;;;;;;7.20;4.47;;;24.50;30.80;;;;;;5013888;28;20033;-46
2022/03/06 07:59:56;;;;;;;5.43;4.20;;;24.60;30.70;;;;;;5024646;28;20037;-46
2022/03/06 08:02:22;;;;;;;5.95;4.68;;;24.60;30.60;;;;;;5018532;28;20038;-46
2022/03/06 08:04:48;;;;;;;6.07;4.38;;;24.70;30.60;;;;;;5022075;28;20033;-46
2022/03/06 08:07:13;;;;;;;5.45;4.22;;;24.70;30.50;;;;;;5004202;28;20384;-46
2022/03/06 08:09:39;;;;;;;6.05;4.43;;;24.80;30.40;;;;;;5004533;28;20061;-46
2022/03/06 08:12:06;;;;;;;5.85;4.32;;;24.80;30.30;;;;;;5004607;28;20193;-47
2022/03/06 08:14:32;;;;;;;5.68;3.85;;;24.90;30.30;;;;;;5004776;28;20040;-46
2022/03/06 08:16:58;;;;;;;5.55;4.55;;;24.90;30.30;;;;;;5003255;28;20389;-46
2022/03/06 08:19:23;;;;;;;5.45;3.80;;;24.90;30.10;;;;;;5003264;28;20025;-46
2022/03/06 08:21:49;;;;;;;5.13;4.07;;;25.00;30.10;;;;;;5003775;28;20107;-47
2022/03/06 08:24:15;;;;;;;6.30;4.07;;;25.00;30.00;;;;;;5004634;28;20028;-46
2022/03/06 08:26:41;;;;;;;5.78;4.43;;;25.00;30.00;;;;;;5003204;28;20050;-46
2022/03/06 08:29:09;;;;;;;5.35;3.92;;;25.00;29.90;;;;;;5003903;28;20038;-46
2022/03/06 08:31:34;;;;;;;6.22;4.32;;;25.10;29.80;;;;;;5004115;28;20559;-46
2022/03/06 08:34:00;;;;;;;4.85;3.92;;;25.10;29.70;;;;;;5003647;28;20100;-47
2022/03/06 08:36:26;;;;;;;5.57;4.10;;;25.20;29.60;;;;;;5002986;28;20037;-46
2022/03/06 08:38:51;;;;;;;5.28;4.18;;;25.20;29.60;;;;;;5003744;28;20041;-47
2022/03/06 08:41:17;;;;;;;5.72;4.53;;;25.20;29.50;;;;;;5004299;28;20037;-46
2022/03/06 08:43:43;;;;;;;5.88;3.83;;;25.20;29.50;;;;;;5002918;28;20022;-46
2022/03/06 08:46:08;;;;;;;5.90;4.40;;;25.20;29.50;;;;;;5003396;28;20080;-47
2022/03/06 08:48:37;;;;;;;6.65;3.97;;;25.30;29.40;;;;;;5002700;28;20420;-47
2022/03/06 08:51:06;;;;;;;6.13;4.30;;;25.30;29.30;;;;;;5003320;28;20053;-46
2022/03/06 08:53:32;;;;;;;5.43;3.95;;;25.30;29.30;;;;;;5003592;28;20515;-46
2022/03/06 08:55:59;;;;;;;5.75;4.20;;;25.40;29.30;;;;;;5003650;28;20436;-46
2022/03/06 08:58:25;;;;;;;4.78;3.55;;;25.40;29.20;;;;;;5003224;28;20030;-46
2022/03/06 09:00:51;;;;;;;5.40;4.00;;;25.40;29.30;;;;;;5003247;28;20034;-46
2022/03/06 09:03:17;;;;;;;5.70;4.10;;;25.40;29.20;;;;;;5002932;28;20030;-46
2022/03/06 09:05:42;;;;;;;6.22;4.40;;;25.40;29.20;;;;;;5003321;28;20125;-47
2022/03/06 09:08:09;;;;;;;5.10;3.90;;;25.40;29.10;;;;;;5003486;28;20030;-46
2022/03/06 09:10:37;;;;;;;4.90;3.88;;;25.40;29.20;;;;;;5002132;28;20041;-46
2022/03/06 09:13:04;;;;;;;7.57;4.53;;;25.40;29.10;;;;;;5003673;28;20029;-46
2022/03/06 09:15:30;;;;;;;5.32;4.13;;;25.40;29.10;;;;;;5003074;28;20105;-46
2022/03/06 09:17:56;;;;;;;5.60;4.35;;;25.40;29.70;;;;;;5003181;28;20038;-46
2022/03/06 09:20:23;;;;;;;4.90;3.80;;;25.50;29.00;;;;;;5003743;28;20194;-46
2022/03/06 09:22:49;;;;;;;5.68;4.30;;;25.50;29.00;;;;;;5005091;28;20571;-46
2022/03/06 09:25:15;;;;;;;4.90;3.55;;;25.50;29.00;;;;;;5004598;28;20026;-46
2022/03/06 09:27:41;;;;;;;5.00;4.00;;;25.50;29.00;;;;;;5004288;28;20030;-47
2022/03/06 09:30:08;;;;;;;5.50;4.38;;;25.50;28.90;;;;;;5005317;28;20186;-47
2022/03/06 09:32:34;;;;;;;5.30;4.13;;;25.50;28.80;;;;;;5006654;28;20110;-46
2022/03/06 09:34:59;;;;;;;7.25;5.30;;;25.50;29.00;;;;;;4999545;28;20115;-45
2022/03/06 09:37:25;;;;;;;5.38;4.28;;;25.50;29.00;;;;;;5008190;28;20066;-46
2022/03/06 09:39:51;;;;;;;5.03;4.03;;;25.50;29.00;;;;;;5007498;28;20128;-46
2022/03/06 09:42:21;;;;;;;5.82;3.85;;;25.50;29.00;;;;;;5007872;28;20045;-46
2022/03/06 09:44:49;;;;;;;5.82;4.35;;;25.50;29.10;;;;;;5021376;28;20038;-46
2022/03/06 09:47:15;;;;;;;5.25;4.25;;;25.50;29.20;;;;;;5008367;28;20172;-46
2022/03/06 09:49:46;;;;;;;6.75;4.10;;;25.50;29.20;;;;;;5018255;28;20289;-47
2022/03/06 09:52:12;;;;;;;5.53;4.20;;;25.50;29.30;;;;;;5026313;28;20040;-46
2022/03/06 09:54:39;;;;;;;4.80;3.58;;;25.50;29.30;;;;;;5006970;28;20044;-46
2022/03/06 09:57:05;;;;;;;6.40;4.38;;;25.50;29.40;;;;;;5006410;28;20463;-46
2022/03/06 09:59:31;;;;;;;6.03;4.40;;;25.50;29.50;;;;;;5021758;28;20026;-45
2022/03/06 10:02:06;;;;;;;6.38;4.30;;;25.50;29.60;;;;;;5021957;28;20438;-46
2022/03/06 10:04:34;;;;;;;6.22;4.82;;;25.50;29.70;;;;;;5006362;28;20482;-46
2022/03/06 10:07:08;;;;;;;6.63;4.68;;;25.40;30.20;;;;;;5006452;28;20037;-45
2022/03/06 10:09:49;;;;;;;6.20;4.65;;;25.50;30.30;;;;;;5006642;28;20044;-45
2022/03/06 10:12:19;;;;;;;8.98;4.72;;;25.50;30.40;;;;;;5006170;28;20512;-46
2022/03/06 10:14:46;;;;;;;6.68;4.47;;;25.50;30.50;;;;;;5009025;28;20033;-46
2022/03/06 10:17:17;;;;;;;7.50;4.88;;;25.50;30.70;;;;;;5026075;28;20029;-45
2022/03/06 10:20:03;;;;;;;8.93;5.20;;;25.50;31.10;;;;;;5005592;28;20492;-46
2022/03/06 10:22:41;;;;;;;6.25;4.72;;;25.50;30.90;;;;;;5006283;28;20163;-46
2022/03/06 10:25:09;;;;;;;6.70;4.55;;;25.60;31.00;;;;;;5005063;28;20402;-46
2022/03/06 10:27:46;;;;;;;6.63;4.40;;;25.60;31.10;;;;;;5002702;28;20088;-46
2022/03/06 10:30:38;;;;;;;6.50;4.28;;;25.60;31.10;;;;;;5005839;28;20025;-46
2022/03/06 10:33:07;;;;;;;6.10;4.03;;;25.60;31.10;;;;;;5005942;28;20433;-45
2022/03/06 10:35:44;;;;;;;6.22;4.40;;;25.60;31.00;;;;;;5005578;28;20451;-44
2022/03/06 10:38:21;;;;;;;6.00;4.05;;;25.60;30.90;;;;;;5005096;28;20621;-46
2022/03/06 10:40:48;;;;;;;6.40;4.45;;;25.60;31.30;;;;;;5005493;28;20038;-47
2022/03/06 10:43:23;;;;;;;6.00;4.28;;;25.60;31.30;;;;;;5004696;28;20029;-47
2022/03/06 10:45:51;;;;;;;6.80;4.32;;;25.60;31.20;;;;;;5005663;28;20120;-46
2022/03/06 10:48:17;;;;;;;5.85;4.50;;;25.60;31.20;;;;;;5007345;28;20125;-45
2022/03/06 10:50:43;;;;;;;6.78;5.13;;;25.60;31.30;;;;;;5005606;28;20029;-46
2022/03/06 10:53:23;;;;;;;7.07;5.38;;;25.60;31.00;;;;;;4998572;28;20037;-46
2022/03/06 10:55:50;;;;;;;6.70;5.20;;;25.70;30.90;;;;;;5007211;28;20026;-46
2022/03/06 10:58:17;;;;;;;5.78;4.63;;;25.70;30.60;;;;;;5007171;28;20505;-46
2022/03/06 11:00:45;;;;;;;6.20;4.63;;;25.70;30.60;;;;;;5005206;28;20026;-47
2022/03/06 11:03:13;;;;;;;5.07;4.28;;;25.70;31.30;;;;;;5005132;28;20073;-46
2022/03/06 11:05:44;;;;;;;6.25;4.57;;;25.70;31.00;;;;;;5005148;28;20045;-46
2022/03/06 11:08:17;;;;;;;5.60;4.35;;;25.80;30.60;;;;;;5005924;28;20383;-46
2022/03/06 11:10:43;;;;;;;5.97;4.68;;;25.80;30.10;;;;;;5005438;28;20061;-46
2022/03/06 11:13:12;;;;;;;6.75;5.22;;;25.80;29.80;;;;;;5007355;28;20029;-45
2022/03/06 11:15:38;;;;;;;6.28;4.50;;;25.80;29.60;;;;;;5006573;28;20037;-46
2022/03/06 11:18:06;;;;;;;4.97;3.85;;;25.80;29.60;;;;;;5006061;28;20068;-45
2022/03/06 11:20:33;;;;;;;6.07;4.63;;;25.80;29.50;;;;;;5006473;28;20103;-47
2022/03/06 11:23:12;;;;;;;5.40;4.10;;;25.80;29.40;;;;;;5004634;28;20052;-46
2022/03/06 11:26:03;;;;;;;5.35;4.28;;;25.80;29.40;;;;;;5004593;28;20531;-46
2022/03/06 11:28:40;;;;;;;5.95;5.00;;;25.80;29.20;;;;;;5023779;28;20034;-46
2022/03/06 11:31:06;;;;;;;5.65;4.22;;;25.80;29.30;;;;;;5019124;28;20038;-46
2022/03/06 11:33:32;;;;;;;5.70;4.13;;;25.80;29.30;;;;;;5006361;28;20629;-46
2022/03/06 11:35:58;;;;;;;5.68;4.00;;;25.70;29.30;;;;;;5010918;28;20104;-46
2022/03/06 11:38:39;;;;;;;4.90;3.70;;;25.70;29.30;;;;;;5009410;28;20454;-46
2022/03/06 11:41:11;;;;;;;6.00;4.35;;;25.70;29.50;;;;;;5025139;28;20067;-45
2022/03/06 11:43:47;;;;;;;6.70;4.45;;;25.70;29.30;;;;;;5006654;28;20036;-47
2022/03/06 11:46:20;;;;;;;5.15;3.90;;;25.60;29.50;;;;;;5004435;28;20058;-45
2022/03/06 11:48:49;;;;;;;4.95;3.50;;;25.60;29.70;;;;;;5005004;28;20100;-46
2022/03/06 11:51:14;;;;;;;5.38;4.20;;;25.60;29.70;;;;;;5005519;28;20029;-46
2022/03/06 11:54:02;;;;;;;6.05;4.50;;;25.60;29.80;;;;;;5004199;28;20378;-47
2022/03/06 11:56:39;;;;;;;10.32;4.38;;;25.60;29.80;;;;;;5003945;28;20028;-47
2022/03/06 11:59:17;;;;;;;8.25;4.85;;;25.60;30.00;;;;;;5002602;28;20101;-46
2022/03/06 12:01:45;;;;;;;7.75;4.63;;;25.60;30.10;;;;;;5003167;28;20752;-46
2022/03/06 12:04:17;;;;;;;5.95;4.00;;;25.50;30.10;;;;;;5003211;28;20030;-46
2022/03/06 12:06:48;;;;;;;6.73;4.43;;;25.50;30.10;;;;;;5003327;28;20100;-46
2022/03/06 12:09:44;;;;;;;7.38;4.32;;;25.50;30.30;;;;;;5002528;28;20273;-47
2022/03/06 12:12:11;;;;;;;9.05;4.43;;;25.50;30.10;;;;;;5002126;28;20029;-47
2022/03/06 12:14:45;;;;;;;6.80;4.20;;;25.50;30.00;;;;;;5002967;28;20026;-47
2022/03/06 12:17:11;;;;;;;7.90;4.35;;;25.50;29.80;;;;;;5003103;28;20440;-46
2022/03/06 12:19:42;;;;;;;7.18;4.15;;;25.50;29.70;;;;;;5003315;28;20030;-46
2022/03/06 12:22:19;;;;;;;7.30;4.43;;;25.50;29.70;;;;;;5002877;28;20033;-46
2022/03/06 12:25:06;;;;;;;7.97;4.80;;;25.40;29.70;;;;;;5002516;28;20731;-45
2022/03/06 12:27:33;;;;;;;12.00;5.90;;;25.40;29.60;;;;;;5018492;28;20021;-46
2022/03/06 12:30:00;;;;;;;13.80;5.90;;;25.40;29.50;;;;;;5018046;28;20017;-47
2022/03/06 12:32:28;;;;;;;12.15;5.35;;;25.40;29.50;;;;;;5001754;28;20049;-46
2022/03/06 12:35:13;;;;;;;12.45;5.60;;;25.40;29.50;;;;;;5002241;28;20037;-46
2022/03/06 12:37:59;;;;;;;13.18;5.88;;;25.40;29.50;;;;;;5003483;28;20058;-46
2022/03/06 12:40:28;;;;;;;8.77;4.70;;;25.40;29.70;;;;;;5003517;28;20026;-46
2022/03/06 12:43:04;;;;;;;8.52;4.65;;;25.40;29.60;;;;;;5003183;28;20088;-46
2022/03/06 12:45:31;;;;;;;10.32;5.15;;;25.40;29.50;;;;;;4999906;28;20635;-46
2022/03/06 12:47:57;;;;;;;9.57;5.10;;;25.40;29.70;;;;;;5002626;28;20026;-46